This is the latest recevied weather packets stored in our database for station/object OE3AOG-10. If no packets are shown the sender has not sent any weather packets the latest 10 day(s).
| Time | Temp. | Humidity | Pressure | Rain* | Wind** | Luminosity | Snow |
|---|---|---|---|---|---|---|---|
| 1787614899 | 17.22° C | 58% | 1018.1 hPa | - | - | - | - |
| 1787611299 | 17.78° C | 57% | 1019 hPa | - | - | - | - |
| 1787607699 | 18.33° C | 54% | 1019.1 hPa | - | - | - | - |
| 1787604099 | 19.44° C | 50% | 1019.6 hPa | - | - | - | - |
| 1787600499 | 20.56° C | 46% | 1019.5 hPa | - | - | - | - |
| 1787596899 | 22.22° C | 41% | 1019.5 hPa | - | - | - | - |
| 1787593299 | 24.44° C | 37% | 1019.2 hPa | - | - | - | - |
| 1787589698 | 26.11° C | 34% | 1019.7 hPa | - | - | - | - |
| 1787586098 | 27.22° C | 31% | 1020.2 hPa | - | - | - | - |
| 1787582498 | 30.56° C | 29% | 1020.7 hPa | - | - | - | - |
| 1787578898 | 31.11° C | 29% | 1021.1 hPa | - | - | - | - |
| 1787575296 | 30° C | 30% | 1021.8 hPa | - | - | - | - |
| 1787571696 | 28.89° C | 33% | 1022.2 hPa | - | - | - | - |
| 1787568096 | 26.11° C | 36% | 1022.6 hPa | - | - | - | - |
| 1787564511 | 25° C | 40% | 1022.9 hPa | - | - | - | - |
| 1787560895 | 23.89° C | 44% | 1023.1 hPa | - | - | - | - |
| 1787557296 | 22.22° C | 48% | 1023.2 hPa | - | - | - | - |
| 1787553696 | 20° C | 54% | 1023.3 hPa | - | - | - | - |
| 1787550096 | 17.78° C | 60% | 1023.2 hPa | - | - | - | - |
| 1787546496 | 16.67° C | 61% | 1022.8 hPa | - | - | - | - |
| 1787542896 | 16.67° C | 61% | 1022.6 hPa | - | - | - | - |
| 1787539295 | 17.22° C | 58% | 1022.4 hPa | - | - | - | - |
| 1787535695 | 17.22° C | 56% | 1022.3 hPa | - | - | - | - |
| 1787532094 | 17.22° C | 57% | 1022.3 hPa | - | - | - | - |
| 1787528494 | 17.22° C | 56% | 1022.5 hPa | - | - | - | - |
* Rain since midnight (hover to see other rain measurements)
** Current wind speed in m/s (hover to see current wind gust speed)